Detalii statie AGROKAISER STANESTI [0000198D]

Toti senzorii

Date Temperatura solului [C]Precipitatii [mm]Voltaj baterie [mV]Leaf Wetness [Min]HC Air temperature [C]HC Relative humidity [%]Punctul de roua [C]
medieminmaxsumaultimatimpmedieminmaxmediemediemin
2018-08-12 11:00:00 0 7254 29.07 28.19 30.15 59.98 20.2 18.3
2018-08-12 12:00:00 0 7158 29.19 28.82 29.56 53.25 18.4 17.9
2018-08-12 13:00:00 0 7088 29.37 28.67 30.11 54.98 19.2 18.3
2018-08-12 14:00:00 0 7088 29.61 29.27 30.42 53.75 19 18.3
2018-08-12 15:00:00 0 7226 30.01 29.63 30.44 53.78 19.4 18.3
2018-08-12 16:00:00 0 7236 30.17 29.66 30.56 54 19.6 19
2018-08-12 17:00:00 0 7236 30.12 29.77 30.43 53.59 19.4 19
2018-08-12 18:00:00 0 6992 29.66 29.06 30.31 54.71 19.3 18.9
2018-08-12 19:00:00 0 6844 28.57 27.96 29.01 59.55 19.7 19.1
2018-08-12 20:00:00 0 6766 26.4 24.83 28.19 63.47 18.7 18
2018-08-12 21:00:00 0 6766 23.85 23.62 24.4 69.66 17.8 17.6
2018-08-12 22:00:00 0 6756 23.22 22.78 23.62 68.64 16.9 16.5
2018-08-12 23:00:00 0 6748 22.21 21.84 22.7 72.25 16.8 16.3
2018-08-13 00:00:00 0 6738 21.16 20.58 21.79 89.59 19.2 17.9
2018-08-13 01:00:00 0 6728 20.08 19.63 20.53 96.28 19.3 19.1
2018-08-13 02:00:00 0 6738 19.3 19.01 19.56 99.14 19 18.9
2018-08-13 03:00:00 0 6728 18.87 18.76 18.92 100 18.8 18.7
2018-08-13 04:00:00 0 6728 18.32 17.29 18.77 100 18.2 17.2
2018-08-13 05:00:00 0 6718 17.25 17.18 17.33 100 17.2 17.1
2018-08-13 06:00:00 0 6766 17.36 16.98 17.74 100 17.3 16.9
2018-08-13 07:00:00 0 7148 19.26 17.7 20.31 99.12 19 17.7
2018-08-13 08:00:00 0 7236 21.68 20.65 22.87 89.1 19.7 19.1
2018-08-13 09:00:00 0 7264 23.73 23.4 24.17 84.52 20.7 20.3
2018-08-13 10:00:00 0 7254 25.76 24.36 27.03 76.97 21.2 20.8
2018-08-13 11:00:00 0 7254 28.69 27.22 29.76 62.27 20.5 19.4
2018-08-13 12:00:00 0 7098 29.59 28.78 30.11 58.41 20.3 19.6
2018-08-13 13:00:00 0 7060 29.62 29.17 30.15 56.21 19.7 18.9
2018-08-13 14:00:00 0 7236 30.15 29.63 30.48 54.14 19.7 18.7
2018-08-13 15:00:00 0 7040 30.6 30.32 31.09 52.91 19.6 19.1
2018-08-13 16:00:00 0 6952 30.43 30.13 30.68 50.53 18.8 18.2
2018-08-13 17:00:00 0 6854 30.53 30.09 30.79 45.48 17.1 16.4
2018-08-13 18:00:00 0 6826 29.88 29.29 30.13 46.62 17 16.3
2018-08-13 19:00:00 0 6766 28.5 27.55 29.29 50.78 17.1 16.8
2018-08-13 20:00:00 0 6748 25.83 25.33 27.2 59.34 17.1 16.7
2018-08-13 21:00:00 0 6748 24.81 24.32 25.21 63.67 17.2 16.9
2018-08-13 22:00:00 0 6728 23.64 22.8 24.24 67.21 17 16.8
2018-08-13 23:00:00 0 6728 22.08 21.73 22.67 68.08 15.7 14.4
2018-08-14 00:00:00 0 6728 21.3 20.61 21.71 63.61 14 13.9
2018-08-14 01:00:00 0 6728 20.25 19.91 20.61 68.45 14 13.8
2018-08-14 02:00:00 0 6728 19.57 19.14 19.86 70.88 13.9 13.8
2018-08-14 03:00:00 0 6728 18.4 17.79 19.08 72.7 13.2 12.8
2018-08-14 04:00:00 0 6728 16.92 16.21 17.69 77.45 12.8 12.7
2018-08-14 05:00:00 0 6708 15.06 14.48 15.87 89.12 13.1 12.7
2018-08-14 06:00:00 0 6756 14.96 14.29 16.01 91.35 13.4 13.1
2018-08-14 07:00:00 0 7176 17.89 16.38 19.39 79.88 14.2 13.2
2018-08-14 08:00:00 0 7236 20.7 19.86 21.38 79.46 16.8 15.9
2018-08-14 09:00:00 0 7274 22.66 21.41 24.27 84.84 19.8 18.4
2018-08-14 10:00:00 0 7264 26.01 23.95 27.5 76.13 21.3 20.8